createdAt,value
2023-01-08T00:00:56.504Z,1.33
2023-01-08T00:01:56.495Z,1.32
2023-01-08T00:02:56.508Z,1.36
2023-01-08T00:03:56.489Z,1.32
2023-01-08T00:04:56.582Z,1.32
2023-01-08T00:05:56.367Z,1.35
2023-01-08T00:06:56.400Z,1.34
2023-01-08T00:07:56.324Z,1.33
2023-01-08T00:08:56.334Z,1.33
2023-01-08T00:09:56.287Z,1.32
2023-01-08T00:10:56.210Z,1.29
2023-01-08T00:11:56.294Z,1.30
2023-01-08T00:12:56.171Z,1.34
2023-01-08T00:13:56.304Z,1.31
2023-01-08T00:14:56.098Z,1.35
2023-01-08T00:15:56.190Z,1.34
2023-01-08T00:16:56.133Z,1.34
2023-01-08T00:17:56.091Z,1.35
2023-01-08T00:18:56.026Z,1.33
2023-01-08T00:19:56.071Z,1.27
2023-01-08T00:20:56.014Z,1.28
2023-01-08T00:21:55.995Z,1.29
2023-01-08T00:22:55.969Z,1.35
2023-01-08T00:23:55.966Z,1.33
2023-01-08T00:24:55.984Z,1.27
2023-01-08T00:25:56.073Z,1.28
2023-01-08T00:26:55.862Z,1.30
2023-01-08T00:27:55.877Z,1.31
2023-01-08T00:28:55.860Z,1.32
2023-01-08T00:29:55.809Z,1.32
2023-01-08T00:30:55.919Z,1.33
2023-01-08T00:31:55.836Z,1.32
2023-01-08T00:32:55.739Z,1.31
2023-01-08T00:33:55.725Z,1.29
2023-01-08T00:34:55.702Z,1.32
2023-01-08T00:35:55.719Z,1.32
2023-01-08T00:36:55.649Z,1.32
2023-01-08T00:38:02.676Z,1.33
2023-01-08T00:38:55.599Z,1.33
2023-01-08T00:39:55.642Z,1.33
2023-01-08T00:40:55.662Z,1.33
2023-01-08T00:41:55.605Z,1.31
2023-01-08T00:42:55.545Z,1.32
2023-01-08T00:43:55.539Z,1.31
2023-01-08T00:44:55.489Z,1.32
2023-01-08T00:45:55.585Z,1.28
2023-01-08T00:46:55.442Z,1.29
2023-01-08T00:47:55.491Z,1.30
2023-01-08T00:48:55.426Z,1.31
2023-01-08T00:49:55.430Z,1.32
2023-01-08T00:50:55.373Z,1.29
2023-01-08T00:51:55.408Z,1.34
2023-01-08T00:52:55.367Z,1.32
2023-01-08T00:53:55.346Z,1.30
2023-01-08T00:54:56.357Z,1.31
2023-01-08T00:55:55.331Z,1.29
2023-01-08T00:56:55.373Z,1.31
2023-01-08T00:57:55.271Z,1.30
2023-01-08T00:58:55.213Z,1.32
2023-01-08T00:59:55.244Z,1.30
2023-01-08T01:00:55.301Z,1.32
2023-01-08T01:01:55.364Z,1.31
2023-01-08T01:02:55.120Z,1.31
2023-01-08T01:03:55.239Z,1.32
2023-01-08T01:04:55.095Z,1.32
2023-01-08T01:05:55.120Z,1.30
2023-01-08T01:06:55.135Z,1.33
2023-01-08T01:07:55.100Z,1.31
2023-01-08T01:08:55.022Z,1.30
2023-01-08T01:09:55.051Z,1.30
2023-01-08T01:10:54.987Z,1.29
2023-01-08T01:11:54.999Z,1.27
2023-01-08T01:12:55.044Z,1.35
2023-01-08T01:13:54.971Z,1.34
2023-01-08T01:14:54.876Z,1.37
2023-01-08T01:15:54.922Z,1.39
2023-01-08T01:16:54.947Z,1.40
2023-01-08T01:17:54.896Z,1.44
2023-01-08T01:18:54.827Z,1.45
2023-01-08T01:19:54.838Z,1.43
2023-01-08T01:20:54.778Z,1.43
2023-01-08T01:21:54.808Z,1.45
2023-01-08T01:22:54.763Z,1.46
2023-01-08T01:23:54.768Z,1.48
2023-01-08T01:24:54.715Z,1.45
2023-01-08T01:25:54.773Z,1.46
2023-01-08T01:26:55.736Z,1.46
2023-01-08T01:27:54.721Z,1.44
2023-01-08T01:28:54.720Z,1.42
2023-01-08T01:29:54.675Z,1.45
2023-01-08T01:30:54.683Z,1.45
2023-01-08T01:31:54.621Z,1.46
2023-01-08T01:32:54.544Z,1.44
2023-01-08T01:33:54.585Z,1.45
2023-01-08T01:34:54.528Z,1.43
2023-01-08T01:35:54.546Z,1.45
2023-01-08T01:36:54.472Z,1.45
2023-01-08T01:37:54.519Z,1.45
2023-01-08T01:38:54.467Z,1.44
2023-01-08T01:39:54.476Z,1.46
2023-01-08T01:40:54.412Z,1.43
2023-01-08T01:41:54.447Z,1.43
2023-01-08T01:42:54.391Z,1.43
2023-01-08T01:43:54.409Z,1.43
2023-01-08T01:44:54.417Z,1.44
2023-01-08T01:45:54.394Z,1.41
2023-01-08T01:46:54.327Z,1.40
2023-01-08T01:47:54.324Z,1.42
2023-01-08T01:48:54.324Z,1.40
2023-01-08T01:49:54.388Z,1.41
2023-01-08T01:50:54.285Z,1.39
2023-01-08T01:51:54.279Z,1.40
2023-01-08T01:52:54.241Z,1.39
2023-01-08T01:53:54.228Z,1.37
2023-01-08T01:54:54.199Z,1.38
2023-01-08T01:55:54.186Z,1.38
2023-01-08T01:56:54.173Z,1.39
2023-01-08T01:57:54.166Z,1.36
2023-01-08T01:58:54.131Z,1.39
2023-01-08T01:59:54.131Z,1.39
2023-01-08T02:00:54.143Z,1.36
2023-01-08T02:01:54.260Z,1.37
2023-01-08T02:02:54.042Z,1.37
2023-01-08T02:03:54.073Z,1.39
2023-01-08T02:04:54.034Z,1.38
2023-01-08T02:05:54.007Z,1.35
2023-01-08T02:06:53.954Z,1.36
2023-01-08T02:07:53.974Z,1.39
2023-01-08T02:08:54.029Z,1.36
2023-01-08T02:09:53.954Z,1.36
2023-01-08T02:10:53.901Z,1.36
2023-01-08T02:11:53.915Z,1.35
2023-01-08T02:12:53.875Z,1.35
2023-01-08T02:13:53.869Z,1.37
2023-01-08T02:14:53.822Z,1.37
2023-01-08T02:15:53.849Z,1.35
2023-01-08T02:16:54.018Z,1.35
2023-01-08T02:17:53.805Z,1.33
2023-01-08T02:18:53.760Z,1.35
2023-01-08T02:19:53.748Z,1.35
2023-01-08T02:20:53.723Z,1.33
2023-01-08T02:21:53.745Z,1.33
2023-01-08T02:22:53.716Z,1.32
2023-01-08T02:23:53.740Z,1.33
2023-01-08T02:24:53.672Z,1.32
2023-01-08T02:25:53.682Z,1.34
2023-01-08T02:26:53.646Z,1.31
2023-01-08T02:27:53.607Z,1.31
2023-01-08T02:28:53.571Z,1.33
2023-01-08T02:29:53.587Z,1.31
2023-01-08T02:30:53.602Z,1.34
2023-01-08T02:31:53.552Z,1.33
2023-01-08T02:32:53.617Z,1.30
2023-01-08T02:33:53.537Z,1.33
2023-01-08T02:34:53.487Z,1.33
2023-01-08T02:35:53.484Z,1.30
2023-01-08T02:36:53.429Z,1.29
2023-01-08T02:37:53.442Z,1.31
2023-01-08T02:38:53.418Z,1.29
2023-01-08T02:39:53.421Z,1.28
2023-01-08T02:40:53.395Z,1.29
2023-01-08T02:41:53.377Z,1.31
2023-01-08T02:42:53.339Z,1.32
2023-01-08T02:43:53.339Z,1.30
2023-01-08T02:44:53.308Z,1.29
2023-01-08T02:45:53.384Z,1.30
2023-01-08T02:46:53.787Z,1.30
2023-01-08T02:47:53.271Z,1.28
2023-01-08T02:48:53.305Z,1.31
2023-01-08T02:49:53.237Z,1.30
2023-01-08T02:50:53.207Z,1.28
2023-01-08T02:51:53.205Z,1.27
2023-01-08T02:52:53.186Z,1.26
2023-01-08T02:53:53.152Z,1.26
2023-01-08T02:54:53.131Z,1.26
2023-01-08T02:55:53.137Z,1.28
2023-01-08T02:56:53.113Z,1.25
2023-01-08T02:57:53.100Z,1.25
2023-01-08T02:58:53.066Z,1.27
2023-01-08T02:59:53.078Z,1.25
2023-01-08T03:00:53.043Z,1.24
2023-01-08T03:01:53.149Z,1.27
2023-01-08T03:02:53.000Z,1.24
2023-01-08T03:03:53.033Z,1.24
2023-01-08T03:04:53.039Z,1.24
2023-01-08T03:05:53.011Z,1.25
2023-01-08T03:06:53.030Z,1.24
2023-01-08T03:07:52.951Z,1.23
2023-01-08T03:08:52.920Z,1.24
2023-01-08T03:09:52.899Z,1.22
2023-01-08T03:10:52.860Z,1.25
2023-01-08T03:11:52.892Z,1.25
2023-01-08T03:12:52.879Z,1.25
2023-01-08T03:13:52.855Z,1.24
2023-01-08T03:14:52.804Z,1.25
2023-01-08T03:15:52.808Z,1.22
2023-01-08T03:16:52.845Z,1.23
2023-01-08T03:17:52.762Z,1.20
2023-01-08T03:18:52.720Z,1.22
2023-01-08T03:19:52.745Z,1.24
2023-01-08T03:20:52.785Z,1.25
2023-01-08T03:21:52.695Z,1.23
2023-01-08T03:22:52.659Z,1.21
2023-01-08T03:23:52.633Z,1.22
2023-01-08T03:24:52.609Z,1.22
2023-01-08T03:25:52.608Z,1.22
2023-01-08T03:26:52.598Z,1.21
2023-01-08T03:27:52.582Z,1.24
2023-01-08T03:28:52.513Z,1.23
2023-01-08T03:29:52.529Z,1.21
2023-01-08T03:30:52.545Z,1.21
2023-01-08T03:31:52.469Z,1.20
2023-01-08T03:32:52.452Z,1.21
2023-01-08T03:33:52.479Z,1.20
2023-01-08T03:34:52.467Z,1.20
2023-01-08T03:35:52.430Z,1.20
2023-01-08T03:36:52.415Z,1.18
2023-01-08T03:37:52.419Z,1.17
2023-01-08T03:38:52.374Z,1.19
2023-01-08T03:39:52.356Z,1.20
2023-01-08T03:40:52.333Z,1.20
2023-01-08T03:41:52.327Z,1.19
2023-01-08T03:42:52.310Z,1.19
2023-01-08T03:43:52.300Z,1.18
2023-01-08T03:44:52.271Z,1.17
2023-01-08T03:45:52.331Z,1.19
2023-01-08T03:46:52.225Z,1.17
2023-01-08T03:47:52.233Z,1.17
2023-01-08T03:48:52.190Z,1.15
2023-01-08T03:49:52.178Z,1.17
2023-01-08T03:50:52.164Z,1.16
2023-01-08T03:51:52.141Z,1.18
2023-01-08T03:52:52.211Z,1.19
2023-01-08T03:53:52.109Z,1.17
2023-01-08T03:54:52.081Z,1.18
2023-01-08T03:55:52.078Z,1.17
2023-01-08T03:56:52.063Z,1.14
2023-01-08T03:57:52.020Z,1.19
2023-01-08T03:58:52.026Z,1.15
2023-01-08T03:59:52.011Z,1.16
2023-01-08T04:00:51.956Z,1.15
2023-01-08T04:01:52.149Z,1.17
2023-01-08T04:02:51.903Z,1.14
2023-01-08T04:03:51.913Z,1.14
2023-01-08T04:04:51.902Z,1.15
2023-01-08T04:05:51.861Z,1.15
2023-01-08T04:06:51.847Z,1.14
2023-01-08T04:07:51.839Z,1.14
2023-01-08T04:08:51.881Z,1.14
2023-01-08T04:09:51.828Z,1.14
2023-01-08T04:10:51.766Z,1.16
2023-01-08T04:11:51.756Z,1.15
2023-01-08T04:12:51.716Z,1.12
2023-01-08T04:13:51.731Z,1.13
2023-01-08T04:14:51.671Z,1.13
2023-01-08T04:15:51.761Z,1.15
2023-01-08T04:16:51.670Z,1.14
2023-01-08T04:17:51.630Z,1.13
2023-01-08T04:18:51.608Z,1.13
2023-01-08T04:19:51.587Z,1.13
2023-01-08T04:20:51.565Z,1.14
2023-01-08T04:21:51.536Z,1.12
2023-01-08T04:22:51.522Z,1.13
2023-01-08T04:23:51.541Z,1.14
2023-01-08T04:24:51.613Z,1.12
2023-01-08T04:25:51.495Z,1.11
2023-01-08T04:26:51.458Z,1.13
2023-01-08T04:27:51.431Z,1.12
2023-01-08T04:28:51.408Z,1.12
2023-01-08T04:29:51.427Z,1.13
2023-01-08T04:30:51.399Z,1.12
2023-01-08T04:31:51.370Z,1.09
2023-01-08T04:32:51.329Z,1.10
2023-01-08T04:33:51.336Z,1.10
2023-01-08T04:34:51.331Z,1.09
2023-01-08T04:35:51.306Z,1.09
2023-01-08T04:36:51.266Z,1.12
2023-01-08T04:37:51.266Z,1.10
2023-01-08T04:38:51.226Z,1.10
2023-01-08T04:39:51.227Z,1.11
2023-01-08T04:40:51.283Z,1.11
2023-01-08T04:41:51.216Z,1.07
2023-01-08T04:42:51.149Z,1.09
2023-01-08T04:43:51.164Z,1.08
2023-01-08T04:44:51.119Z,1.07
2023-01-08T04:45:51.108Z,1.09
2023-01-08T04:46:51.087Z,1.07
2023-01-08T04:47:51.057Z,1.08
2023-01-08T04:48:51.034Z,1.10
2023-01-08T04:49:51.073Z,1.10
2023-01-08T04:50:51.026Z,1.08
2023-01-08T04:51:50.988Z,1.07
2023-01-08T04:52:50.953Z,1.09
2023-01-08T04:53:50.976Z,1.08
2023-01-08T04:54:50.929Z,1.08
2023-01-08T04:55:50.913Z,1.08
2023-01-08T04:56:50.989Z,1.04
2023-01-08T04:57:50.903Z,1.08
2023-01-08T04:58:50.874Z,1.09
2023-01-08T04:59:50.840Z,1.08
2023-01-08T05:00:50.811Z,1.07
2023-01-08T05:01:50.896Z,1.09
2023-01-08T05:02:50.877Z,1.07
2023-01-08T05:03:50.776Z,1.05
2023-01-08T05:04:50.749Z,1.05
2023-01-08T05:05:50.756Z,1.08
2023-01-08T05:06:50.719Z,1.08
2023-01-08T05:07:50.734Z,1.06
2023-01-08T05:08:50.688Z,1.06
2023-01-08T05:09:50.672Z,1.07
2023-01-08T05:10:50.643Z,1.06
2023-01-08T05:11:50.651Z,1.06
2023-01-08T05:12:50.714Z,1.06
2023-01-08T05:13:50.596Z,1.04
2023-01-08T05:14:50.576Z,1.06
2023-01-08T05:15:50.602Z,1.06
2023-01-08T05:16:50.555Z,1.06
2023-01-08T05:17:50.518Z,1.06
2023-01-08T05:18:50.509Z,1.04
2023-01-08T05:19:50.507Z,1.08
2023-01-08T05:20:50.483Z,1.07
2023-01-08T05:21:50.473Z,1.08
2023-01-08T05:22:50.413Z,1.04
2023-01-08T05:23:50.412Z,1.05
2023-01-08T05:24:50.382Z,1.05
2023-01-08T05:25:50.366Z,1.07
2023-01-08T05:26:50.355Z,1.05
2023-01-08T05:27:50.364Z,1.05
2023-01-08T05:28:50.400Z,1.05
2023-01-08T05:29:50.315Z,1.05
2023-01-08T05:30:50.281Z,1.03
2023-01-08T05:31:50.276Z,1.04
2023-01-08T05:32:50.226Z,1.08
2023-01-08T05:33:50.228Z,1.06
2023-01-08T05:34:50.190Z,1.06
2023-01-08T05:35:50.192Z,1.05
2023-01-08T05:36:50.166Z,1.04
2023-01-08T05:37:50.175Z,1.04
2023-01-08T05:38:50.144Z,1.04
2023-01-08T05:39:50.127Z,1.04
2023-01-08T05:40:50.096Z,1.02
2023-01-08T05:41:50.096Z,1.03
2023-01-08T05:42:50.040Z,1.04
2023-01-08T05:43:50.021Z,1.04
2023-01-08T05:44:50.080Z,1.03
2023-01-08T05:45:50.016Z,1.04
2023-01-08T05:46:49.974Z,1.03
2023-01-08T05:47:49.944Z,1.03
2023-01-08T05:48:49.930Z,1.05
2023-01-08T05:49:49.921Z,1.04
2023-01-08T05:50:49.908Z,1.03
2023-01-08T05:51:49.900Z,1.03
2023-01-08T05:52:49.848Z,1.04
2023-01-08T05:53:49.861Z,1.03
2023-01-08T05:54:49.827Z,1.03
2023-01-08T05:55:49.826Z,1.02
2023-01-08T05:56:49.788Z,1.02
2023-01-08T05:57:49.801Z,1.01
2023-01-08T05:58:49.820Z,1.02
2023-01-08T05:59:49.756Z,1.02
2023-01-08T06:00:49.805Z,1.02
2023-01-08T06:01:49.755Z,1.04
2023-01-08T06:02:49.765Z,1.03
2023-01-08T06:03:49.726Z,1.03
2023-01-08T06:04:49.656Z,1.02
2023-01-08T06:05:49.665Z,1.03
2023-01-08T06:06:49.592Z,1.01
2023-01-08T06:07:49.629Z,1.00
2023-01-08T06:08:49.608Z,1.01
2023-01-08T06:09:49.584Z,1.02
2023-01-08T06:10:49.528Z,1.01
2023-01-08T06:11:49.589Z,1.02
2023-01-08T06:12:49.525Z,1.02
2023-01-08T06:13:49.546Z,1.01
2023-01-08T06:14:49.499Z,1.02
2023-01-08T06:15:49.562Z,1.01
2023-01-08T06:16:49.554Z,1.01
2023-01-08T06:17:49.454Z,1.00
2023-01-08T06:18:49.398Z,1.01
2023-01-08T06:19:49.459Z,1.02
2023-01-08T06:20:49.400Z,1.00
2023-01-08T06:21:49.410Z,1.00
2023-01-08T06:22:49.347Z,1.01
2023-01-08T06:23:49.377Z,1.00
2023-01-08T06:24:49.317Z,1.01
2023-01-08T06:25:49.356Z,0.99
2023-01-08T06:26:49.272Z,1.00
2023-01-08T06:27:49.310Z,1.00
2023-01-08T06:28:49.275Z,1.01
2023-01-08T06:29:49.287Z,1.00
2023-01-08T06:30:49.362Z,0.99
2023-01-08T06:31:49.259Z,1.00
2023-01-08T06:32:49.278Z,0.99
2023-01-08T06:33:49.196Z,0.99
2023-01-08T06:34:49.139Z,1.02
2023-01-08T06:35:49.263Z,1.01
2023-01-08T06:36:49.115Z,1.00
2023-01-08T06:37:49.171Z,0.99
2023-01-08T06:38:57.915Z,0.99
2023-01-08T06:39:49.111Z,0.99
2023-01-08T06:40:49.118Z,1.00
2023-01-08T06:41:49.097Z,0.99
2023-01-08T06:42:49.098Z,1.00
2023-01-08T06:43:49.075Z,1.01
2023-01-08T06:44:49.085Z,1.01
2023-01-08T06:45:49.028Z,1.01
2023-01-08T06:46:49.223Z,1.00
2023-01-08T06:47:49.014Z,1.01
2023-01-08T06:48:49.127Z,1.00
2023-01-08T06:49:48.974Z,0.99
2023-01-08T06:50:49.058Z,1.02
2023-01-08T06:51:48.975Z,0.99
2023-01-08T06:52:49.043Z,0.99
2023-01-08T06:53:48.917Z,0.98
2023-01-08T06:54:48.945Z,0.97
2023-01-08T06:55:48.915Z,0.98
2023-01-08T06:56:53.936Z,0.99
2023-01-08T06:57:49.879Z,0.99
2023-01-08T06:58:48.813Z,0.99
2023-01-08T06:59:48.876Z,0.99
2023-01-08T07:00:48.991Z,1.01
2023-01-08T07:01:49.078Z,1.01
2023-01-08T07:02:48.892Z,1.00
2023-01-08T07:03:48.928Z,1.00
2023-01-08T07:04:48.836Z,0.99
2023-01-08T07:05:48.747Z,0.99
2023-01-08T07:06:48.724Z,0.99
2023-01-08T07:07:48.723Z,0.99
2023-01-08T07:08:48.642Z,0.98
2023-01-08T07:09:48.689Z,0.98
2023-01-08T07:10:48.625Z,0.97
2023-01-08T07:11:48.670Z,0.99
2023-01-08T07:12:48.743Z,0.99
2023-01-08T07:13:48.765Z,1.00
2023-01-08T07:14:48.586Z,0.99
2023-01-08T07:15:48.703Z,0.98
2023-01-08T07:16:48.499Z,0.96
2023-01-08T07:17:48.595Z,0.96
2023-01-08T07:18:48.730Z,0.96
2023-01-08T07:19:48.461Z,0.97
2023-01-08T07:20:48.546Z,0.99
2023-01-08T07:21:48.441Z,1.08
2023-01-08T07:22:48.379Z,1.13
2023-01-08T07:23:48.370Z,1.15
2023-01-08T07:24:48.306Z,1.18
2023-01-08T07:25:48.647Z,1.13
2023-01-08T07:26:48.253Z,1.21
2023-01-08T07:27:48.269Z,1.23
2023-01-08T07:28:48.191Z,1.23
2023-01-08T07:29:48.226Z,1.21
2023-01-08T07:30:48.142Z,1.24
2023-01-08T07:31:48.188Z,1.23
2023-01-08T07:32:48.084Z,1.21
2023-01-08T07:33:48.097Z,1.22
2023-01-08T07:34:48.031Z,1.23
2023-01-08T07:35:48.000Z,1.21
2023-01-08T07:36:48.027Z,1.23
2023-01-08T07:37:47.962Z,1.22
2023-01-08T07:38:47.857Z,1.25
2023-01-08T07:39:47.915Z,1.24
2023-01-08T07:40:47.802Z,1.22
2023-01-08T07:41:47.812Z,1.23
2023-01-08T07:42:47.745Z,1.22
2023-01-08T07:43:47.778Z,1.18
2023-01-08T07:44:47.728Z,1.19
2023-01-08T07:45:47.648Z,1.20
2023-01-08T07:46:47.669Z,1.20
2023-01-08T07:47:47.631Z,1.22
2023-01-08T07:48:47.518Z,1.23
2023-01-08T07:49:47.617Z,1.22
2023-01-08T07:50:47.465Z,1.22
2023-01-08T07:51:47.451Z,1.24
2023-01-08T07:52:47.497Z,1.21
2023-01-08T07:53:47.395Z,1.24
2023-01-08T07:54:47.467Z,1.23
2023-01-08T07:55:47.349Z,1.25
2023-01-08T07:56:47.246Z,1.23
2023-01-08T07:57:47.293Z,1.23
2023-01-08T07:58:47.178Z,1.22
2023-01-08T07:59:47.212Z,1.24
2023-01-08T08:00:47.316Z,1.24
2023-01-08T08:01:47.252Z,1.25
2023-01-08T08:02:47.158Z,1.27
2023-01-08T08:03:47.073Z,1.27
2023-01-08T08:04:46.978Z,1.28
2023-01-08T08:05:46.973Z,1.26
2023-01-08T08:06:46.934Z,1.28
2023-01-08T08:07:46.927Z,1.30
2023-01-08T08:08:46.979Z,1.24
2023-01-08T08:09:46.872Z,1.26
2023-01-08T08:10:46.821Z,1.32
2023-01-08T08:11:46.870Z,1.30
2023-01-08T08:12:46.743Z,1.29
2023-01-08T08:13:46.804Z,1.29
2023-01-08T08:14:46.764Z,1.32
2023-01-08T08:15:46.728Z,1.28
2023-01-08T08:16:46.652Z,1.28
2023-01-08T08:17:46.665Z,1.30
2023-01-08T08:18:46.604Z,1.32
2023-01-08T08:19:46.591Z,1.29
2023-01-08T08:20:46.546Z,1.27
2023-01-08T08:21:46.558Z,1.29
2023-01-08T08:22:46.457Z,1.28
2023-01-08T08:23:46.571Z,1.30
2023-01-08T08:24:46.487Z,1.30
2023-01-08T08:25:46.430Z,1.27
2023-01-08T08:26:46.344Z,1.27
2023-01-08T08:27:46.367Z,1.26
2023-01-08T08:28:46.360Z,1.25
2023-01-08T08:29:46.291Z,1.24
2023-01-08T08:30:46.218Z,1.24
2023-01-08T08:31:46.221Z,1.23
2023-01-08T08:32:46.153Z,1.26
2023-01-08T08:33:46.188Z,1.23
2023-01-08T08:34:46.125Z,1.22
2023-01-08T08:35:46.108Z,1.24
2023-01-08T08:36:46.016Z,1.23
2023-01-08T08:37:46.053Z,1.24
2023-01-08T08:38:45.992Z,1.20
2023-01-08T08:39:45.965Z,1.19
2023-01-08T08:40:45.980Z,1.19
2023-01-08T08:41:45.920Z,1.19
2023-01-08T08:42:45.841Z,1.20
2023-01-08T08:43:45.850Z,1.21
2023-01-08T08:44:45.783Z,1.19
2023-01-08T08:45:45.780Z,1.17
2023-01-08T08:46:45.769Z,1.17
2023-01-08T08:47:45.817Z,1.17
2023-01-08T08:48:45.648Z,1.15
2023-01-08T08:49:45.792Z,1.17
2023-01-08T08:50:45.548Z,1.17
2023-01-08T08:51:45.586Z,1.16
2023-01-08T08:52:45.505Z,1.16
2023-01-08T08:53:45.484Z,1.14
2023-01-08T08:54:45.443Z,1.13
2023-01-08T08:55:45.467Z,1.13
2023-01-08T08:56:45.353Z,1.16
2023-01-08T08:57:45.582Z,1.12
2023-01-08T08:58:45.291Z,1.12
2023-01-08T08:59:45.345Z,1.13
2023-01-08T09:00:45.201Z,1.11
2023-01-08T09:01:45.244Z,1.14
2023-01-08T09:02:45.441Z,1.13
2023-01-08T09:03:45.172Z,1.14
2023-01-08T09:04:45.075Z,1.12
2023-01-08T09:05:45.042Z,1.12
2023-01-08T09:06:45.001Z,1.08
2023-01-08T09:07:45.008Z,1.10
2023-01-08T09:08:45.023Z,1.10
2023-01-08T09:09:44.926Z,1.13
2023-01-08T09:10:44.891Z,1.07
2023-01-08T09:11:44.875Z,1.08
2023-01-08T09:12:44.865Z,1.08
2023-01-08T09:13:44.800Z,1.09
2023-01-08T09:14:44.713Z,1.07
2023-01-08T09:15:44.719Z,1.10
2023-01-08T09:16:44.643Z,1.07
2023-01-08T09:17:44.663Z,1.07
2023-01-08T09:18:44.587Z,1.07
2023-01-08T09:19:44.566Z,1.08
2023-01-08T09:20:44.517Z,1.07
2023-01-08T09:21:44.556Z,1.09
2023-01-08T09:22:44.440Z,1.05
2023-01-08T09:23:44.470Z,1.07
2023-01-08T09:24:44.366Z,1.04
2023-01-08T09:25:44.377Z,1.07
2023-01-08T09:26:44.316Z,1.05
2023-01-08T09:27:44.314Z,1.04
2023-01-08T09:28:44.335Z,1.04
2023-01-08T09:29:44.280Z,1.07
2023-01-08T09:30:44.241Z,1.04
2023-01-08T09:31:44.245Z,1.03
2023-01-08T09:32:44.134Z,1.02
2023-01-08T09:33:44.131Z,1.01
2023-01-08T09:34:44.100Z,1.02
2023-01-08T09:35:44.077Z,1.00
2023-01-08T09:36:44.024Z,1.00
2023-01-08T09:37:44.026Z,1.02
2023-01-08T09:38:43.967Z,1.02
2023-01-08T09:39:48.043Z,0.98
2023-01-08T09:40:43.891Z,0.98
2023-01-08T09:41:43.922Z,0.98
2023-01-08T09:42:43.859Z,0.98
2023-01-08T09:43:43.870Z,0.99
2023-01-08T09:44:43.890Z,1.01
2023-01-08T09:45:43.803Z,0.99
2023-01-08T09:46:43.958Z,0.99
2023-01-08T09:47:43.796Z,0.99
2023-01-08T09:48:43.698Z,0.99
2023-01-08T09:49:43.700Z,0.99
2023-01-08T09:50:43.722Z,1.01
2023-01-08T09:51:43.661Z,1.01
2023-01-08T09:52:43.919Z,1.01
2023-01-08T09:53:43.583Z,0.99
2023-01-08T09:54:43.547Z,1.01
2023-01-08T09:55:43.559Z,0.97
2023-01-08T09:56:43.507Z,0.98
2023-01-08T09:57:43.609Z,0.99
2023-01-08T09:58:43.459Z,0.98
2023-01-08T09:59:43.482Z,0.99
2023-01-08T10:00:43.565Z,1.00
2023-01-08T10:01:43.472Z,0.99
2023-01-08T10:02:43.380Z,0.97
2023-01-08T10:03:43.399Z,0.99
2023-01-08T10:04:43.320Z,0.99
2023-01-08T10:05:43.323Z,0.97
2023-01-08T10:06:43.248Z,0.98
2023-01-08T10:07:43.300Z,0.99
2023-01-08T10:08:43.233Z,0.99
2023-01-08T10:09:43.219Z,0.97
2023-01-08T10:10:43.339Z,0.98
2023-01-08T10:11:43.225Z,0.97
2023-01-08T10:12:43.169Z,0.97
2023-01-08T10:13:43.288Z,0.99
2023-01-08T10:14:43.104Z,0.98
2023-01-08T10:15:43.159Z,0.96
2023-01-08T10:16:43.136Z,0.99
2023-01-08T10:17:43.134Z,0.98
2023-01-08T10:18:43.101Z,0.97
2023-01-08T10:19:43.012Z,0.99
2023-01-08T10:20:42.975Z,0.98
2023-01-08T10:21:42.974Z,1.00
2023-01-08T10:22:42.942Z,0.96
2023-01-08T10:23:42.899Z,0.98
2023-01-08T10:24:42.829Z,0.98
2023-01-08T10:25:42.894Z,0.98
2023-01-08T10:26:42.819Z,0.98
2023-01-08T10:27:42.767Z,0.96
2023-01-08T10:28:42.759Z,0.97
2023-01-08T10:29:42.743Z,0.98
2023-01-08T10:30:42.695Z,0.96
2023-01-08T10:31:42.695Z,0.96
2023-01-08T10:32:42.621Z,0.95
2023-01-08T10:33:42.687Z,0.96
2023-01-08T10:34:42.562Z,0.96
2023-01-08T10:35:42.544Z,0.95
2023-01-08T10:36:42.496Z,0.97
2023-01-08T10:37:42.640Z,0.95
2023-01-08T10:38:42.480Z,0.95
2023-01-08T10:39:42.490Z,0.96
2023-01-08T10:40:42.389Z,0.95
2023-01-08T10:41:42.383Z,0.95
2023-01-08T10:42:42.341Z,0.93
2023-01-08T10:43:42.343Z,0.94
2023-01-08T10:44:42.280Z,0.93
2023-01-08T10:45:42.317Z,0.92
2023-01-08T10:46:42.267Z,0.93
2023-01-08T10:47:42.219Z,0.92
2023-01-08T10:48:42.283Z,0.94
2023-01-08T10:49:42.230Z,0.92
2023-01-08T10:50:42.127Z,0.91
2023-01-08T10:51:42.140Z,0.91
2023-01-08T10:52:42.115Z,0.91
2023-01-08T10:53:42.095Z,0.90
2023-01-08T10:54:42.030Z,0.91
2023-01-08T10:55:42.042Z,0.91
2023-01-08T10:56:42.016Z,0.91
2023-01-08T10:57:42.004Z,0.93
2023-01-08T10:58:41.976Z,0.91
2023-01-08T10:59:41.983Z,0.92
2023-01-08T11:00:41.946Z,0.92
2023-01-08T11:01:42.101Z,0.91
2023-01-08T11:02:41.910Z,0.90
2023-01-08T11:03:41.862Z,0.94
2023-01-08T11:04:41.813Z,0.91
2023-01-08T11:05:41.783Z,0.92
2023-01-08T11:06:41.739Z,0.90
2023-01-08T11:07:41.775Z,0.90
2023-01-08T11:08:41.705Z,0.77
2023-01-08T11:09:41.709Z,0.82
2023-01-08T11:10:41.670Z,0.83
2023-01-08T11:11:41.701Z,0.84
2023-01-08T11:12:41.659Z,0.82
2023-01-08T11:13:41.643Z,0.84
2023-01-08T11:14:41.598Z,0.84
2023-01-08T11:15:41.626Z,0.85
2023-01-08T11:16:41.606Z,0.84
2023-01-08T11:17:41.564Z,0.85
2023-01-08T11:18:41.515Z,0.83
2023-01-08T11:19:41.526Z,0.85
2023-01-08T11:20:42.122Z,0.82
2023-01-08T11:21:41.485Z,0.84
2023-01-08T11:22:41.480Z,0.82
2023-01-08T11:23:41.455Z,0.85
2023-01-08T11:24:41.430Z,0.85
2023-01-08T11:25:41.420Z,0.85
2023-01-08T11:26:41.399Z,0.86
2023-01-08T11:27:41.403Z,0.84
2023-01-08T11:28:41.455Z,0.86
2023-01-08T11:29:41.360Z,0.86
2023-01-08T11:30:41.310Z,0.87
2023-01-08T11:31:41.463Z,0.86
2023-01-08T11:32:41.257Z,0.86
2023-01-08T11:33:41.275Z,0.86
2023-01-08T11:34:41.231Z,0.85
2023-01-08T11:35:41.231Z,0.87
2023-01-08T11:36:41.195Z,0.87
2023-01-08T11:37:41.186Z,0.87
2023-01-08T11:38:41.150Z,0.91
2023-01-08T11:39:41.293Z,0.88
2023-01-08T11:40:41.233Z,0.87
2023-01-08T11:41:41.123Z,0.93
2023-01-08T11:42:41.109Z,0.95
2023-01-08T11:43:41.059Z,1.00
2023-01-08T11:44:41.014Z,1.02
2023-01-08T11:45:41.119Z,1.03
2023-01-08T11:46:41.014Z,1.13
2023-01-08T11:47:40.985Z,1.16
2023-01-08T11:48:40.958Z,1.20
2023-01-08T11:49:40.956Z,1.26
2023-01-08T11:50:40.922Z,1.31
2023-01-08T11:51:40.904Z,1.23
2023-01-08T11:52:40.869Z,1.28
2023-01-08T11:53:40.872Z,1.25
2023-01-08T11:54:40.842Z,1.30
2023-01-08T11:55:40.839Z,1.31
2023-01-08T11:56:40.799Z,1.28
2023-01-08T11:57:40.776Z,1.33
2023-01-08T11:58:40.712Z,1.41
2023-01-08T11:59:40.731Z,1.39
2023-01-08T12:00:40.721Z,1.42
2023-01-08T12:01:40.752Z,1.42
2023-01-08T12:02:40.619Z,1.46
2023-01-08T12:03:40.664Z,1.55
2023-01-08T12:04:40.724Z,1.44
2023-01-08T12:05:40.577Z,1.54
2023-01-08T12:06:40.546Z,1.48
2023-01-08T12:07:40.546Z,1.59
2023-01-08T12:08:40.568Z,1.70
2023-01-08T12:09:40.517Z,1.67
2023-01-08T12:10:40.476Z,1.74
2023-01-08T12:11:40.518Z,1.70
2023-01-08T12:12:40.436Z,1.79
2023-01-08T12:13:40.435Z,1.79
2023-01-08T12:14:40.494Z,1.80
2023-01-08T12:15:40.378Z,1.84
2023-01-08T12:16:40.392Z,1.83
2023-01-08T12:17:40.346Z,1.87
2023-01-08T12:18:40.312Z,1.86
2023-01-08T12:19:40.423Z,1.90
2023-01-08T12:20:40.332Z,1.95
2023-01-08T12:21:40.264Z,1.91
2023-01-08T12:22:40.217Z,1.97
2023-01-08T12:23:40.229Z,1.94
2023-01-08T12:24:40.221Z,1.92
2023-01-08T12:25:40.173Z,1.96
2023-01-08T12:26:40.196Z,1.95
2023-01-08T12:27:56.486Z,1.96
2023-01-08T12:28:41.086Z,1.97
2023-01-08T12:29:40.025Z,1.94
2023-01-08T12:30:40.044Z,1.97
2023-01-08T12:31:41.293Z,1.91
2023-01-08T12:32:40.211Z,1.94
2023-01-08T12:33:40.172Z,1.93
2023-01-08T12:34:40.146Z,1.92
2023-01-08T12:35:40.072Z,2.00
2023-01-08T12:36:40.096Z,1.96
2023-01-08T12:37:40.047Z,1.95
2023-01-08T12:38:40.084Z,1.88
2023-01-08T12:39:40.051Z,1.92
2023-01-08T12:40:39.984Z,1.95
2023-01-08T12:41:39.964Z,1.94
2023-01-08T12:42:39.974Z,1.90
2023-01-08T12:43:39.892Z,1.92
2023-01-08T12:44:39.881Z,1.86
2023-01-08T12:45:40.044Z,1.90
2023-01-08T12:46:39.874Z,1.92
2023-01-08T12:47:39.950Z,1.89
2023-01-08T12:48:39.797Z,1.86
2023-01-08T12:49:39.812Z,1.91
2023-01-08T12:50:39.879Z,1.87
2023-01-08T12:51:39.694Z,1.87
2023-01-08T12:52:39.703Z,1.80
2023-01-08T12:53:39.790Z,1.83
2023-01-08T12:54:39.699Z,1.85
2023-01-08T12:55:39.601Z,1.78
2023-01-08T12:56:39.660Z,1.81
2023-01-08T12:57:39.597Z,1.78
2023-01-08T12:58:39.573Z,1.87
2023-01-08T12:59:39.550Z,1.87
2023-01-08T13:00:39.577Z,1.82
2023-01-08T13:01:41.681Z,1.82
2023-01-08T13:02:39.518Z,1.79
2023-01-08T13:03:39.515Z,1.77
2023-01-08T13:04:39.487Z,1.83
2023-01-08T13:05:39.409Z,1.82
2023-01-08T13:06:39.435Z,1.81
2023-01-08T13:07:39.383Z,1.80
2023-01-08T13:08:39.426Z,1.78
2023-01-08T13:09:39.374Z,1.78
2023-01-08T13:10:39.340Z,1.81
2023-01-08T13:11:39.322Z,1.76
2023-01-08T13:12:39.331Z,1.77
2023-01-08T13:13:39.320Z,1.76
2023-01-08T13:14:39.271Z,1.75
2023-01-08T13:15:39.267Z,1.72
2023-01-08T13:16:39.361Z,1.72
2023-01-08T13:17:39.183Z,1.72
2023-01-08T13:18:39.217Z,1.72